createdAt,value
2024-01-26T00:00:10.783Z,7.70
2024-01-26T00:02:17.105Z,7.07
2024-01-26T00:04:20.888Z,5.68
2024-01-26T00:06:31.735Z,5.60
2024-01-26T00:08:35.562Z,3.92
2024-01-26T00:10:37.723Z,4.22
2024-01-26T00:12:40.824Z,7.18
2024-01-26T00:14:44.711Z,3.63
2024-01-26T00:16:46.859Z,10.52
2024-01-26T00:18:50.107Z,4.95
2024-01-26T00:20:53.265Z,9.45
2024-01-26T00:22:56.776Z,7.00
2024-01-26T00:25:00.127Z,4.63
2024-01-26T00:27:03.976Z,5.63
2024-01-26T00:29:06.962Z,6.78
2024-01-26T00:31:10.360Z,2.78
2024-01-26T00:33:13.655Z,6.45
2024-01-26T00:35:17.450Z,7.07
2024-01-26T00:37:20.922Z,4.15
2024-01-26T00:39:26.783Z,6.55
2024-01-26T00:41:29.936Z,8.02
2024-01-26T00:43:33.176Z,6.22
2024-01-26T00:45:36.351Z,5.68
2024-01-26T00:47:39.714Z,3.85
2024-01-26T00:49:49.358Z,8.00
2024-01-26T00:51:56.952Z,3.63
2024-01-26T00:54:01.248Z,5.82
2024-01-26T00:56:06.966Z,4.75
2024-01-26T00:58:11.346Z,7.28
2024-01-26T01:00:15.357Z,4.47
2024-01-26T01:02:18.676Z,7.97
2024-01-26T01:04:22.236Z,6.38
2024-01-26T01:06:25.568Z,9.38
2024-01-26T01:08:28.721Z,9.48
2024-01-26T01:10:31.902Z,10.95
2024-01-26T01:12:36.510Z,6.70
2024-01-26T01:14:41.806Z,4.95
2024-01-26T01:16:46.572Z,5.75
2024-01-26T01:18:50.160Z,3.85
2024-01-26T01:20:52.508Z,4.45
2024-01-26T01:22:58.744Z,4.13
2024-01-26T01:25:02.041Z,9.85
2024-01-26T01:27:05.970Z,6.20
2024-01-26T01:29:10.544Z,5.78
2024-01-26T01:31:13.718Z,3.85
2024-01-26T01:33:17.031Z,5.82
2024-01-26T01:35:20.232Z,8.35
2024-01-26T01:37:24.533Z,5.40
2024-01-26T01:39:27.629Z,8.02
2024-01-26T01:42:06.821Z,4.38
2024-01-26T01:44:11.633Z,7.55
2024-01-26T01:46:15.715Z,4.72
2024-01-26T01:48:19.333Z,5.28
2024-01-26T01:50:22.910Z,8.57
2024-01-26T01:52:28.107Z,4.53
2024-01-26T01:54:30.925Z,6.85
2024-01-26T01:56:37.671Z,6.88
2024-01-26T01:58:43.776Z,3.33
2024-01-26T02:01:17.160Z,6.07
2024-01-26T02:03:21.967Z,3.40
2024-01-26T02:05:25.334Z,7.93
2024-01-26T02:07:28.720Z,6.93
2024-01-26T02:09:32.441Z,8.07
2024-01-26T02:11:35.636Z,5.07
2024-01-26T02:13:37.838Z,2.70
2024-01-26T02:15:41.005Z,8.38
2024-01-26T02:17:45.715Z,4.75
2024-01-26T02:19:48.999Z,6.22
2024-01-26T02:21:53.873Z,9.65
2024-01-26T02:23:58.481Z,5.80
2024-01-26T02:26:02.682Z,5.95
2024-01-26T02:28:06.367Z,4.13
2024-01-26T02:30:10.286Z,9.38
2024-01-26T02:32:12.487Z,5.28
2024-01-26T02:34:15.934Z,3.10
2024-01-26T02:36:19.292Z,7.90
2024-01-26T02:38:22.580Z,6.45
2024-01-26T02:40:27.039Z,10.98
2024-01-26T02:42:32.265Z,4.55
2024-01-26T02:44:36.160Z,9.32
2024-01-26T02:46:39.281Z,5.65
2024-01-26T02:48:42.751Z,8.98
2024-01-26T02:50:46.075Z,5.90
2024-01-26T02:52:49.645Z,4.82
2024-01-26T02:54:53.145Z,5.97
2024-01-26T02:56:58.274Z,5.45
2024-01-26T02:59:00.722Z,6.50
2024-01-26T03:01:04.370Z,4.63
2024-01-26T03:03:08.003Z,3.75
2024-01-26T03:05:12.098Z,3.97
2024-01-26T03:07:15.431Z,8.93
2024-01-26T03:09:18.636Z,9.45
2024-01-26T03:11:21.859Z,9.32
2024-01-26T03:13:26.424Z,7.97
2024-01-26T03:15:29.916Z,9.52
2024-01-26T03:17:33.383Z,6.95
2024-01-26T03:19:37.538Z,10.90
2024-01-26T03:21:44.844Z,9.32
2024-01-26T03:23:48.288Z,6.07
2024-01-26T03:25:51.535Z,4.35
2024-01-26T03:27:54.813Z,6.90
2024-01-26T03:29:59.512Z,5.80
2024-01-26T03:32:01.930Z,5.82
2024-01-26T03:34:06.318Z,4.05
2024-01-26T03:36:12.579Z,9.18
2024-01-26T03:38:16.753Z,7.15
2024-01-26T03:40:20.010Z,7.18
2024-01-26T03:42:23.128Z,5.85
2024-01-26T03:44:27.325Z,5.72
2024-01-26T03:46:31.907Z,3.88
2024-01-26T03:48:34.663Z,6.35
2024-01-26T03:50:37.899Z,7.93
2024-01-26T03:52:41.127Z,9.23
2024-01-26T03:54:44.894Z,6.13
2024-01-26T03:56:48.242Z,4.97
2024-01-26T03:58:54.305Z,5.43
2024-01-26T04:00:57.504Z,9.05
2024-01-26T04:03:02.403Z,5.65
2024-01-26T04:05:06.272Z,3.45
2024-01-26T04:07:12.150Z,8.05
2024-01-26T04:09:15.382Z,10.07
2024-01-26T04:11:18.644Z,6.68
2024-01-26T04:13:21.064Z,5.60
2024-01-26T04:15:24.230Z,5.53
2024-01-26T04:17:27.660Z,4.97
2024-01-26T04:19:32.367Z,6.82
2024-01-26T04:21:37.580Z,5.85
2024-01-26T04:23:40.793Z,8.82
2024-01-26T04:25:47.987Z,4.30
2024-01-26T04:27:51.440Z,8.60
2024-01-26T04:29:54.697Z,3.85
2024-01-26T04:31:58.017Z,8.82
2024-01-26T04:34:01.368Z,5.47
2024-01-26T04:36:09.555Z,6.60
2024-01-26T04:38:12.922Z,8.05
2024-01-26T04:40:16.195Z,4.70
2024-01-26T04:42:22.331Z,4.47
2024-01-26T04:44:27.329Z,8.35
2024-01-26T04:46:30.561Z,4.95
2024-01-26T04:48:33.922Z,4.28
2024-01-26T04:50:37.268Z,2.58
2024-01-26T04:52:44.103Z,5.13
2024-01-26T04:54:49.604Z,8.02
2024-01-26T04:56:52.816Z,9.23
2024-01-26T04:58:56.442Z,10.50
2024-01-26T05:01:01.825Z,8.40
2024-01-26T05:03:05.697Z,6.05
2024-01-26T05:05:08.109Z,5.10
2024-01-26T05:07:14.110Z,5.32
2024-01-26T05:09:19.006Z,8.02
2024-01-26T05:11:27.238Z,2.67
2024-01-26T05:15:33.356Z,3.80
2024-01-26T05:17:38.884Z,6.05
2024-01-26T05:19:42.508Z,6.05
2024-01-26T05:21:46.639Z,4.05
2024-01-26T05:23:50.239Z,8.80
2024-01-26T05:25:55.824Z,6.45
2024-01-26T05:27:59.249Z,4.72
2024-01-26T05:30:02.657Z,9.52
2024-01-26T05:32:07.090Z,4.68
2024-01-26T05:34:14.075Z,11.15
2024-01-26T05:36:17.451Z,5.57
2024-01-26T05:38:20.698Z,4.20
2024-01-26T05:40:23.956Z,10.02
2024-01-26T05:42:27.732Z,7.10
2024-01-26T05:44:31.126Z,4.93
2024-01-26T05:46:35.279Z,8.10
2024-01-26T05:48:38.718Z,7.00
2024-01-26T05:50:46.475Z,7.40
2024-01-26T05:52:51.366Z,4.75
2024-01-26T05:54:54.777Z,4.55
2024-01-26T05:56:59.150Z,4.97
2024-01-26T05:59:03.700Z,7.25
2024-01-26T06:01:07.749Z,10.48
2024-01-26T06:03:11.230Z,7.13
2024-01-26T06:05:14.792Z,7.80
2024-01-26T06:07:18.149Z,10.90
2024-01-26T06:09:22.518Z,9.77
2024-01-26T06:11:26.429Z,5.53
2024-01-26T06:13:29.721Z,6.32
2024-01-26T06:15:34.580Z,6.43
2024-01-26T06:17:38.108Z,9.60
2024-01-26T06:19:43.646Z,5.25
2024-01-26T06:21:48.089Z,7.95
2024-01-26T06:23:50.429Z,10.45
2024-01-26T06:25:53.630Z,6.07
2024-01-26T06:27:57.096Z,7.97
2024-01-26T06:30:00.670Z,10.70
2024-01-26T06:32:07.978Z,5.35
2024-01-26T06:34:12.488Z,6.13
2024-01-26T06:36:14.851Z,9.60
2024-01-26T06:38:20.178Z,6.53
2024-01-26T06:40:23.329Z,8.55
2024-01-26T06:42:27.210Z,4.07
2024-01-26T06:44:30.532Z,5.32
2024-01-26T06:46:34.721Z,11.57
2024-01-26T06:48:39.398Z,4.90
2024-01-26T06:50:42.800Z,4.03
2024-01-26T06:52:46.270Z,9.85
2024-01-26T06:54:49.726Z,6.47
2024-01-26T06:56:53.001Z,8.65
2024-01-26T06:58:56.320Z,2.78
2024-01-26T07:01:00.572Z,7.88
2024-01-26T07:03:04.197Z,2.85
2024-01-26T07:05:10.061Z,3.55
2024-01-26T07:07:13.397Z,6.13
2024-01-26T07:09:17.201Z,9.15
2024-01-26T07:11:22.999Z,3.95
2024-01-26T07:13:26.556Z,7.30
2024-01-26T07:15:31.234Z,11.35
2024-01-26T07:17:34.536Z,10.32
2024-01-26T07:19:38.883Z,8.57
2024-01-26T07:21:44.542Z,6.80
2024-01-26T07:23:47.799Z,8.27
2024-01-26T07:25:51.144Z,12.50
2024-01-26T07:27:54.407Z,5.82
2024-01-26T07:29:57.767Z,5.65
2024-01-26T07:32:01.172Z,9.27
2024-01-26T07:34:04.581Z,8.15
2024-01-26T07:36:08.427Z,7.13
2024-01-26T07:38:13.113Z,11.77
2024-01-26T07:40:16.483Z,7.05
2024-01-26T07:42:22.182Z,9.15
2024-01-26T07:44:27.788Z,11.98
2024-01-26T07:46:31.031Z,9.73
2024-01-26T07:48:33.313Z,8.63
2024-01-26T07:50:37.726Z,10.20
2024-01-26T07:52:41.240Z,8.23
2024-01-26T07:54:45.821Z,9.18
2024-01-26T07:56:49.279Z,4.93
2024-01-26T07:58:52.459Z,8.20
2024-01-26T08:00:57.005Z,3.67
2024-01-26T08:03:00.622Z,5.32
2024-01-26T08:05:05.496Z,11.68
2024-01-26T08:07:08.885Z,8.35
2024-01-26T08:09:13.658Z,5.47
2024-01-26T08:11:21.411Z,9.05
2024-01-26T08:13:26.137Z,12.45
2024-01-26T08:15:30.615Z,8.05
2024-01-26T08:17:34.201Z,9.02
2024-01-26T08:19:39.099Z,3.70
2024-01-26T08:21:41.683Z,5.95
2024-01-26T08:23:45.392Z,5.70
2024-01-26T08:25:48.712Z,4.82
2024-01-26T08:27:54.971Z,7.43
2024-01-26T08:29:58.699Z,5.47
2024-01-26T08:32:01.946Z,5.50
2024-01-26T08:34:06.429Z,5.68
2024-01-26T08:36:10.072Z,5.93
2024-01-26T08:38:13.511Z,5.93
2024-01-26T08:40:18.912Z,4.75
2024-01-26T08:42:21.251Z,11.13
2024-01-26T08:44:25.847Z,8.27
2024-01-26T08:46:30.100Z,2.85
2024-01-26T08:48:33.668Z,6.63
2024-01-26T08:50:38.096Z,5.28
2024-01-26T08:52:41.364Z,4.65
2024-01-26T08:54:45.694Z,5.28
2024-01-26T08:56:49.902Z,4.82
2024-01-26T08:58:53.485Z,5.05
2024-01-26T09:00:58.278Z,6.93
2024-01-26T09:03:01.547Z,6.38
2024-01-26T09:05:07.631Z,7.47
2024-01-26T09:07:12.112Z,4.63
2024-01-26T09:09:16.553Z,5.35
2024-01-26T09:11:20.879Z,3.95
2024-01-26T09:13:25.131Z,2.90
2024-01-26T09:15:29.467Z,5.50
2024-01-26T09:17:33.178Z,5.63
2024-01-26T09:19:37.597Z,3.22
2024-01-26T09:21:40.957Z,2.80
2024-01-26T09:23:45.170Z,4.65
2024-01-26T09:25:48.555Z,9.93
2024-01-26T09:27:51.911Z,6.85
2024-01-26T09:29:54.125Z,7.25
2024-01-26T09:32:00.788Z,10.32
2024-01-26T09:34:08.164Z,4.13
2024-01-26T09:36:14.874Z,4.75
2024-01-26T09:38:19.496Z,9.07
2024-01-26T09:40:25.699Z,6.45
2024-01-26T09:42:30.152Z,3.30
2024-01-26T09:44:33.719Z,6.25
2024-01-26T09:46:38.280Z,4.57
2024-01-26T09:48:55.121Z,5.45
2024-01-26T09:51:00.554Z,5.63
2024-01-26T09:53:07.234Z,4.93
2024-01-26T09:55:17.302Z,9.68
2024-01-26T09:57:21.510Z,4.53
2024-01-26T09:59:27.084Z,4.85
2024-01-26T10:01:30.878Z,3.00
2024-01-26T10:03:38.077Z,4.22
2024-01-26T10:05:40.434Z,8.73
2024-01-26T10:07:46.842Z,8.52
2024-01-26T10:09:52.624Z,4.82
2024-01-26T10:11:58.863Z,7.40
2024-01-26T10:14:02.757Z,3.17
2024-01-26T10:16:08.912Z,3.83
2024-01-26T10:18:13.881Z,5.82
2024-01-26T10:20:23.277Z,3.75
2024-01-26T10:22:26.860Z,6.07
2024-01-26T10:24:31.785Z,7.25
2024-01-26T10:26:34.470Z,7.95
2024-01-26T10:28:39.201Z,7.40
2024-01-26T10:30:46.034Z,5.05
2024-01-26T10:32:51.084Z,3.15
2024-01-26T10:34:59.172Z,2.88
2024-01-26T10:37:07.482Z,3.92
2024-01-26T10:39:19.512Z,4.75
2024-01-26T10:41:30.437Z,1.90
2024-01-26T10:43:34.516Z,4.10
2024-01-26T10:45:39.447Z,9.00
2024-01-26T10:47:49.341Z,4.03
2024-01-26T10:49:56.153Z,3.72
2024-01-26T10:52:03.543Z,5.00
2024-01-26T10:54:11.834Z,5.00
2024-01-26T10:56:17.645Z,5.65
2024-01-26T10:58:27.461Z,3.60
2024-01-26T11:00:31.757Z,4.53
2024-01-26T11:02:36.374Z,6.80
2024-01-26T11:04:43.353Z,6.25
2024-01-26T11:06:46.928Z,4.72
2024-01-26T11:08:56.203Z,5.82
2024-01-26T11:11:07.974Z,4.93
2024-01-26T11:13:15.898Z,5.63
2024-01-26T11:15:21.600Z,4.22
2024-01-26T11:17:24.744Z,3.53
2024-01-26T11:19:33.424Z,4.25
2024-01-26T11:21:40.753Z,3.92
2024-01-26T11:23:45.934Z,4.68
2024-01-26T11:25:54.681Z,2.50
2024-01-26T11:28:03.107Z,3.60
2024-01-26T11:30:21.592Z,6.07
2024-01-26T11:32:26.413Z,2.92
2024-01-26T11:34:30.915Z,4.00
2024-01-26T11:36:36.442Z,7.38
2024-01-26T11:38:41.251Z,4.05
2024-01-26T11:40:46.148Z,6.75
2024-01-26T11:42:50.459Z,6.88
2024-01-26T11:45:08.380Z,5.32
2024-01-26T11:47:12.284Z,3.58
2024-01-26T11:49:18.065Z,8.30
2024-01-26T11:51:21.931Z,5.80
2024-01-26T11:53:25.443Z,9.10
2024-01-26T11:55:30.305Z,11.32
2024-01-26T11:57:37.083Z,3.90
2024-01-26T11:59:47.796Z,7.93
2024-01-26T12:01:56.059Z,4.97
2024-01-26T12:03:59.709Z,4.47
2024-01-26T12:06:04.241Z,5.55
2024-01-26T12:08:09.201Z,17.40
2024-01-26T12:10:16.012Z,3.53
2024-01-26T12:12:20.253Z,3.00
2024-01-26T12:14:26.673Z,5.07
2024-01-26T12:16:35.696Z,6.25
2024-01-26T12:18:40.021Z,4.53
2024-01-26T12:20:43.503Z,2.70
2024-01-26T12:22:49.212Z,3.67
2024-01-26T12:24:54.677Z,3.00
2024-01-26T12:26:58.059Z,7.13
2024-01-26T12:29:08.746Z,3.40
2024-01-26T12:31:12.025Z,8.88
2024-01-26T12:33:17.616Z,5.28
2024-01-26T12:35:21.688Z,5.00
2024-01-26T12:37:29.416Z,3.25
2024-01-26T12:39:37.293Z,4.57
2024-01-26T12:41:47.675Z,2.15
2024-01-26T12:43:51.163Z,2.80
2024-01-26T12:45:54.642Z,6.65
2024-01-26T12:47:59.394Z,4.15
2024-01-26T12:50:02.904Z,7.30
2024-01-26T12:52:07.117Z,7.28
2024-01-26T12:54:12.175Z,8.10
2024-01-26T12:56:17.288Z,5.53
2024-01-26T12:58:19.598Z,7.70
2024-01-26T13:00:23.439Z,7.32
2024-01-26T13:02:27.888Z,5.88
2024-01-26T13:04:32.580Z,7.50
2024-01-26T13:06:37.454Z,2.85
2024-01-26T13:08:40.952Z,7.07
2024-01-26T13:10:44.813Z,4.03
2024-01-26T13:12:50.819Z,7.30
2024-01-26T13:14:58.117Z,5.10
2024-01-26T13:17:02.079Z,4.70
2024-01-26T13:19:07.034Z,7.13
2024-01-26T13:21:10.949Z,6.38
2024-01-26T13:23:13.646Z,3.60
2024-01-26T13:25:17.565Z,5.43
2024-01-26T13:27:23.834Z,4.60
2024-01-26T13:29:29.820Z,5.20
2024-01-26T13:31:34.229Z,5.68
2024-01-26T13:33:39.838Z,4.70
2024-01-26T13:35:43.206Z,5.97
2024-01-26T13:37:46.691Z,7.82
2024-01-26T13:39:50.020Z,8.70
2024-01-26T13:41:53.504Z,9.20
2024-01-26T13:43:57.982Z,5.25
2024-01-26T13:46:04.848Z,3.97
2024-01-26T13:48:11.419Z,5.95
2024-01-26T13:50:17.218Z,4.45
2024-01-26T13:52:20.676Z,6.93
2024-01-26T13:54:24.976Z,4.00
2024-01-26T13:56:28.614Z,16.00
2024-01-26T13:58:37.838Z,10.10
2024-01-26T14:00:41.872Z,8.32
2024-01-26T14:02:47.850Z,5.07
2024-01-26T14:04:51.143Z,6.40
2024-01-26T14:06:54.953Z,6.80
2024-01-26T14:08:57.414Z,8.27
2024-01-26T14:11:01.140Z,6.70
2024-01-26T14:13:05.353Z,3.67
2024-01-26T14:15:11.493Z,5.00
2024-01-26T14:17:15.604Z,7.63
2024-01-26T14:19:20.502Z,5.93
2024-01-26T14:21:24.923Z,11.13
2024-01-26T14:23:28.268Z,9.50
2024-01-26T14:25:32.792Z,10.85
2024-01-26T14:27:41.845Z,8.02
2024-01-26T14:29:45.407Z,5.47
2024-01-26T14:31:50.678Z,5.82
2024-01-26T14:33:54.178Z,12.18
2024-01-26T14:36:00.032Z,9.75
2024-01-26T14:38:03.330Z,4.90
2024-01-26T14:40:13.110Z,8.10
2024-01-26T14:42:16.511Z,5.60
2024-01-26T14:44:20.743Z,9.05
2024-01-26T14:46:24.225Z,6.57
2024-01-26T14:48:28.009Z,11.02
2024-01-26T14:50:33.727Z,13.30
2024-01-26T14:52:39.921Z,13.65
2024-01-26T14:54:43.943Z,10.23
2024-01-26T14:56:48.408Z,12.25
2024-01-26T14:58:51.766Z,5.10
2024-01-26T15:00:55.090Z,8.80
2024-01-26T15:02:58.478Z,12.82
2024-01-26T15:05:02.997Z,9.43
2024-01-26T15:07:06.935Z,11.48
2024-01-26T15:09:13.031Z,13.18
2024-01-26T15:11:18.198Z,10.68
2024-01-26T15:13:22.505Z,11.05
2024-01-26T15:15:25.907Z,9.30
2024-01-26T15:17:28.211Z,9.82
2024-01-26T15:19:33.749Z,11.07
2024-01-26T15:21:42.417Z,7.70
2024-01-26T15:23:46.082Z,14.98
2024-01-26T15:25:51.149Z,11.57
2024-01-26T15:27:54.687Z,10.40
2024-01-26T15:29:59.737Z,10.00
2024-01-26T15:32:04.057Z,13.43
2024-01-26T15:34:07.736Z,9.60
2024-01-26T15:36:10.369Z,12.05
2024-01-26T15:38:13.987Z,8.93
2024-01-26T15:40:19.536Z,8.95
2024-01-26T15:42:26.597Z,10.68
2024-01-26T15:44:32.408Z,11.45
2024-01-26T15:46:35.705Z,10.65
2024-01-26T15:48:39.034Z,13.40
2024-01-26T15:50:42.435Z,9.20
2024-01-26T15:52:47.546Z,10.55
2024-01-26T15:54:50.180Z,13.95
2024-01-26T15:56:54.691Z,11.25
2024-01-26T15:58:58.336Z,10.65
2024-01-26T16:01:02.255Z,10.45
2024-01-26T16:03:06.191Z,16.67
2024-01-26T16:05:10.199Z,10.52
2024-01-26T16:07:13.482Z,12.63
2024-01-26T16:09:18.251Z,17.83
2024-01-26T16:11:21.802Z,13.73
2024-01-26T16:13:24.127Z,16.88
2024-01-26T16:15:28.861Z,13.98
2024-01-26T16:17:31.495Z,11.60
2024-01-26T16:19:35.798Z,16.83
2024-01-26T16:21:39.768Z,16.58
2024-01-26T16:23:43.418Z,11.93
2024-01-26T16:25:47.036Z,11.90
2024-01-26T16:27:50.398Z,11.50
2024-01-26T16:29:52.777Z,10.60
2024-01-26T16:31:58.406Z,11.15
2024-01-26T16:34:04.280Z,14.50
2024-01-26T16:36:07.277Z,20.45
2024-01-26T16:38:10.605Z,21.77
2024-01-26T16:40:14.658Z,11.45
2024-01-26T16:42:18.175Z,11.65
2024-01-26T16:44:21.891Z,13.13
2024-01-26T16:46:25.425Z,12.95
2024-01-26T16:48:30.297Z,16.33
2024-01-26T16:50:33.836Z,13.82
2024-01-26T16:52:37.170Z,13.80
2024-01-26T16:54:40.555Z,10.98
2024-01-26T16:56:44.414Z,10.88
2024-01-26T16:58:48.441Z,18.77
2024-01-26T17:00:52.796Z,10.80
2024-01-26T17:02:58.623Z,13.70
2024-01-26T17:05:04.127Z,12.95
2024-01-26T17:07:07.792Z,13.05
2024-01-26T17:09:12.362Z,19.77
2024-01-26T17:11:15.742Z,13.82
2024-01-26T17:13:18.192Z,11.60
2024-01-26T17:15:22.301Z,12.13
2024-01-26T17:17:24.677Z,13.80
2024-01-26T17:19:28.240Z,8.73
2024-01-26T17:21:33.044Z,7.75
2024-01-26T17:23:38.812Z,10.40
2024-01-26T17:25:42.396Z,10.52
2024-01-26T17:27:46.065Z,10.07
2024-01-26T17:29:49.570Z,14.02
2024-01-26T17:31:53.441Z,14.05
2024-01-26T17:33:57.392Z,12.13
2024-01-26T17:36:01.396Z,11.90
2024-01-26T17:38:06.292Z,11.40
2024-01-26T17:40:12.433Z,15.20
2024-01-26T17:42:15.930Z,10.23
2024-01-26T17:44:21.348Z,10.88
2024-01-26T17:46:26.793Z,15.23
2024-01-26T17:48:30.338Z,10.60
2024-01-26T17:50:34.203Z,6.22
2024-01-26T17:52:41.725Z,16.02
2024-01-26T17:54:46.785Z,11.65
2024-01-26T17:56:50.579Z,12.63
2024-01-26T17:58:54.180Z,9.88
2024-01-26T18:00:58.687Z,10.63
2024-01-26T18:03:02.451Z,8.43
2024-01-26T18:05:06.812Z,7.47
2024-01-26T18:07:09.563Z,10.55
2024-01-26T18:09:13.830Z,14.10
2024-01-26T18:11:19.212Z,14.80
2024-01-26T18:13:22.887Z,14.23
2024-01-26T18:15:25.754Z,18.20
2024-01-26T18:17:30.387Z,14.82
2024-01-26T18:19:34.210Z,11.38
2024-01-26T18:21:37.952Z,14.38
2024-01-26T18:23:43.093Z,13.85
2024-01-26T18:25:47.462Z,13.50
2024-01-26T18:27:53.072Z,9.50
2024-01-26T18:29:57.750Z,13.13
2024-01-26T18:32:04.503Z,15.55
2024-01-26T18:34:08.833Z,12.50
2024-01-26T18:36:13.699Z,12.95
2024-01-26T18:38:20.427Z,10.60
2024-01-26T18:40:25.579Z,13.43
2024-01-26T18:42:30.160Z,10.45
2024-01-26T18:44:38.695Z,12.05
2024-01-26T18:46:43.765Z,14.52
2024-01-26T18:48:48.543Z,11.27
2024-01-26T18:50:53.108Z,21.02
2024-01-26T18:52:58.773Z,12.48
2024-01-26T18:55:07.797Z,18.58
2024-01-26T18:57:12.276Z,20.10
2024-01-26T18:59:19.734Z,15.93
2024-01-26T19:01:26.489Z,14.13
2024-01-26T19:03:32.254Z,13.73
2024-01-26T19:05:40.267Z,18.23
2024-01-26T19:07:46.024Z,16.27
2024-01-26T19:09:53.308Z,17.38
2024-01-26T19:11:57.262Z,15.82
2024-01-26T19:14:01.653Z,13.45
2024-01-26T19:16:06.257Z,13.63
2024-01-26T19:18:16.986Z,13.60
2024-01-26T19:20:21.758Z,14.65
2024-01-26T19:22:26.757Z,16.77
2024-01-26T19:24:30.517Z,20.92
2024-01-26T19:26:34.742Z,13.95
2024-01-26T19:28:40.761Z,19.88
2024-01-26T19:30:44.463Z,12.63
2024-01-26T19:32:52.029Z,14.02
2024-01-26T19:34:57.040Z,15.23
2024-01-26T19:37:00.972Z,23.83
2024-01-26T19:39:05.023Z,16.45
2024-01-26T19:41:08.847Z,18.10
2024-01-26T19:43:15.668Z,18.02
2024-01-26T19:45:21.866Z,20.15
2024-01-26T19:47:27.997Z,21.23
2024-01-26T19:49:32.863Z,18.35
2024-01-26T19:51:37.313Z,16.45
2024-01-26T19:53:41.309Z,19.40
2024-01-26T19:55:45.889Z,18.77
2024-01-26T19:57:49.701Z,17.70
2024-01-26T19:59:54.670Z,15.30
2024-01-26T20:01:59.334Z,24.90
2024-01-26T20:04:01.683Z,17.27
2024-01-26T20:06:05.502Z,20.80
2024-01-26T20:08:11.360Z,19.50
2024-01-26T20:10:16.783Z,18.13
2024-01-26T20:12:20.407Z,19.85
2024-01-26T20:14:23.908Z,21.45
2024-01-26T20:16:29.398Z,17.90
2024-01-26T20:18:32.028Z,17.92
2024-01-26T20:20:36.946Z,22.75
2024-01-26T20:22:41.307Z,19.52
2024-01-26T20:24:47.350Z,22.23
2024-01-26T20:26:50.220Z,17.63
2024-01-26T20:28:54.561Z,16.20
2024-01-26T20:30:57.957Z,20.40
2024-01-26T20:33:03.340Z,20.42
2024-01-26T20:35:09.650Z,19.60
2024-01-26T20:37:14.400Z,20.90
2024-01-26T20:39:23.462Z,24.17
2024-01-26T20:41:30.320Z,16.15
2024-01-26T20:43:34.686Z,16.85
2024-01-26T20:45:44.096Z,13.75
2024-01-26T20:47:49.080Z,20.27
2024-01-26T20:49:54.770Z,17.80
2024-01-26T20:51:59.058Z,18.45
2024-01-26T20:54:04.939Z,22.73
2024-01-26T20:56:09.828Z,20.92
2024-01-26T20:58:17.139Z,22.20
2024-01-26T21:00:22.995Z,19.27
2024-01-26T21:02:28.497Z,15.52
2024-01-26T21:04:32.459Z,20.02
2024-01-26T21:06:36.120Z,17.75
2024-01-26T21:08:41.673Z,23.55
2024-01-26T21:10:46.943Z,23.73
2024-01-26T21:12:51.963Z,19.48
2024-01-26T21:14:57.297Z,19.65
2024-01-26T21:17:02.618Z,21.77
2024-01-26T21:19:06.955Z,15.40
2024-01-26T21:21:11.723Z,19.60
2024-01-26T21:23:16.313Z,23.33
2024-01-26T21:25:21.341Z,18.63
2024-01-26T21:27:24.805Z,20.52
2024-01-26T21:29:27.048Z,23.20
2024-01-26T21:31:37.161Z,18.05
2024-01-26T21:33:43.426Z,20.63
2024-01-26T21:35:52.734Z,16.70
2024-01-26T21:37:58.755Z,21.67
2024-01-26T21:40:09.050Z,20.95
2024-01-26T21:42:12.715Z,24.48
2024-01-26T21:44:16.543Z,25.52
2024-01-26T21:46:20.036Z,19.40
2024-01-26T21:48:25.879Z,17.73
2024-01-26T21:50:32.152Z,21.70
2024-01-26T21:52:37.087Z,26.58
2024-01-26T21:54:40.446Z,29.10
2024-01-26T21:56:44.580Z,24.05
2024-01-26T21:58:48.113Z,25.33
2024-01-26T22:00:52.020Z,23.02
2024-01-26T22:02:55.688Z,28.38
2024-01-26T22:05:00.483Z,35.28
2024-01-26T22:07:03.833Z,39.30
2024-01-26T22:09:09.120Z,31.02
2024-01-26T22:11:13.500Z,28.63
2024-01-26T22:13:18.822Z,33.55
2024-01-26T22:15:24.319Z,27.38
2024-01-26T22:17:26.508Z,27.52
2024-01-26T22:19:29.858Z,28.23
2024-01-26T22:21:33.706Z,26.67
2024-01-26T22:23:37.066Z,30.85
2024-01-26T22:25:42.171Z,26.23
2024-01-26T22:27:45.563Z,29.40
2024-01-26T22:29:49.144Z,25.63
2024-01-26T22:31:52.800Z,31.15
2024-01-26T22:33:57.246Z,21.25
2024-01-26T22:36:00.680Z,10.57
2024-01-26T22:38:06.434Z,17.35
2024-01-26T22:40:11.409Z,15.23
2024-01-26T22:42:15.949Z,11.63
2024-01-26T22:44:19.200Z,14.32
2024-01-26T22:46:22.374Z,11.23
2024-01-26T22:48:28.316Z,10.32
2024-01-26T22:50:32.245Z,5.85
2024-01-26T22:52:39.569Z,5.68
2024-01-26T22:54:45.374Z,7.75
2024-01-26T22:56:50.685Z,3.97
2024-01-26T22:58:54.189Z,9.65
2024-01-26T23:00:57.771Z,8.20
2024-01-26T23:03:01.908Z,4.15
2024-01-26T23:05:05.635Z,4.32
2024-01-26T23:07:08.989Z,7.30
2024-01-26T23:09:13.458Z,6.70
2024-01-26T23:11:17.211Z,8.77
2024-01-26T23:13:20.539Z,5.82
2024-01-26T23:15:26.717Z,8.02
2024-01-26T23:17:30.111Z,5.68
2024-01-26T23:19:33.548Z,11.05
2024-01-26T23:21:36.805Z,6.95
2024-01-26T23:23:40.383Z,4.82
2024-01-26T23:25:43.580Z,4.03
2024-01-26T23:27:48.027Z,4.68
2024-01-26T23:30:02.772Z,6.63
2024-01-26T23:32:07.536Z,6.70
2024-01-26T23:34:20.019Z,6.25
2024-01-26T23:36:26.950Z,7.05
2024-01-26T23:38:36.341Z,6.57
2024-01-26T23:40:41.482Z,6.85
2024-01-26T23:42:44.708Z,6.47
2024-01-26T23:44:51.865Z,7.03
2024-01-26T23:46:56.321Z,8.93
2024-01-26T23:48:58.840Z,7.25
2024-01-26T23:51:03.404Z,6.10
2024-01-26T23:53:09.149Z,5.35
2024-01-26T23:55:12.297Z,6.35
2024-01-26T23:57:16.564Z,4.03
2024-01-26T23:59:26.678Z,6.38
